sensor_id;sensor_type;location;lat;lon;timestamp;temperature;humidity
2327;DHT22;1174;51.588;7.328;2024-02-21T00:01:23;9.80;99.90
2327;DHT22;1174;51.588;7.328;2024-02-21T00:03:49;9.80;99.90
2327;DHT22;1174;51.588;7.328;2024-02-21T00:06:16;9.80;99.90
2327;DHT22;1174;51.588;7.328;2024-02-21T00:08:43;9.80;99.90
2327;DHT22;1174;51.588;7.328;2024-02-21T00:11:10;9.90;99.90
2327;DHT22;1174;51.588;7.328;2024-02-21T00:13:38;9.80;99.90
2327;DHT22;1174;51.588;7.328;2024-02-21T00:16:05;9.80;99.90
2327;DHT22;1174;51.588;7.328;2024-02-21T00:18:31;9.80;99.90
2327;DHT22;1174;51.588;7.328;2024-02-21T00:20:58;9.70;99.90
2327;DHT22;1174;51.588;7.328;2024-02-21T00:23:27;9.60;99.90
2327;DHT22;1174;51.588;7.328;2024-02-21T00:25:53;9.70;99.90
2327;DHT22;1174;51.588;7.328;2024-02-21T00:28:20;9.70;99.90
2327;DHT22;1174;51.588;7.328;2024-02-21T00:30:48;9.70;99.90
2327;DHT22;1174;51.588;7.328;2024-02-21T00:33:16;9.80;99.90
2327;DHT22;1174;51.588;7.328;2024-02-21T00:35:43;9.70;99.90
2327;DHT22;1174;51.588;7.328;2024-02-21T00:38:09;9.80;99.90
2327;DHT22;1174;51.588;7.328;2024-02-21T00:40:36;9.70;99.90
2327;DHT22;1174;51.588;7.328;2024-02-21T00:43:03;9.70;99.90
2327;DHT22;1174;51.588;7.328;2024-02-21T00:45:30;9.70;99.90
2327;DHT22;1174;51.588;7.328;2024-02-21T00:47:58;9.80;99.90
2327;DHT22;1174;51.588;7.328;2024-02-21T00:50:24;9.70;99.90
2327;DHT22;1174;51.588;7.328;2024-02-21T00:52:51;9.70;99.90
2327;DHT22;1174;51.588;7.328;2024-02-21T00:55:18;9.70;99.90
2327;DHT22;1174;51.588;7.328;2024-02-21T00:57:44;9.80;99.90
2327;DHT22;1174;51.588;7.328;2024-02-21T01:00:12;9.70;99.90
2327;DHT22;1174;51.588;7.328;2024-02-21T01:02:39;9.70;99.90
2327;DHT22;1174;51.588;7.328;2024-02-21T01:05:08;9.70;99.90
2327;DHT22;1174;51.588;7.328;2024-02-21T01:07:34;9.60;99.90
2327;DHT22;1174;51.588;7.328;2024-02-21T01:10:01;9.50;99.90
2327;DHT22;1174;51.588;7.328;2024-02-21T01:12:28;9.50;99.90
2327;DHT22;1174;51.588;7.328;2024-02-21T01:14:54;9.60;99.90
2327;DHT22;1174;51.588;7.328;2024-02-21T01:17:21;9.60;99.90
2327;DHT22;1174;51.588;7.328;2024-02-21T01:19:48;9.50;99.90
2327;DHT22;1174;51.588;7.328;2024-02-21T01:22:16;9.60;99.90
2327;DHT22;1174;51.588;7.328;2024-02-21T01:24:43;9.60;99.90
2327;DHT22;1174;51.588;7.328;2024-02-21T01:27:10;9.60;99.90
2327;DHT22;1174;51.588;7.328;2024-02-21T01:29:37;9.60;99.90
2327;DHT22;1174;51.588;7.328;2024-02-21T01:32:04;9.60;99.90
2327;DHT22;1174;51.588;7.328;2024-02-21T01:34:31;9.50;99.90
2327;DHT22;1174;51.588;7.328;2024-02-21T01:36:58;9.50;99.90
2327;DHT22;1174;51.588;7.328;2024-02-21T01:39:30;9.50;99.90
2327;DHT22;1174;51.588;7.328;2024-02-21T01:41:57;9.50;99.90
2327;DHT22;1174;51.588;7.328;2024-02-21T01:44:25;9.50;99.90
2327;DHT22;1174;51.588;7.328;2024-02-21T01:46:52;9.60;99.90
2327;DHT22;1174;51.588;7.328;2024-02-21T01:49:20;9.60;99.90
2327;DHT22;1174;51.588;7.328;2024-02-21T01:51:47;9.70;99.90
2327;DHT22;1174;51.588;7.328;2024-02-21T01:54:17;9.70;99.90
2327;DHT22;1174;51.588;7.328;2024-02-21T01:56:46;9.70;99.90
2327;DHT22;1174;51.588;7.328;2024-02-21T01:59:15;9.60;99.90
2327;DHT22;1174;51.588;7.328;2024-02-21T02:01:42;9.60;99.90
2327;DHT22;1174;51.588;7.328;2024-02-21T02:04:09;9.70;99.90
2327;DHT22;1174;51.588;7.328;2024-02-21T02:06:36;9.70;99.90
2327;DHT22;1174;51.588;7.328;2024-02-21T02:09:03;9.60;99.90
2327;DHT22;1174;51.588;7.328;2024-02-21T02:11:32;9.60;99.90
2327;DHT22;1174;51.588;7.328;2024-02-21T02:14:00;9.70;99.90
2327;DHT22;1174;51.588;7.328;2024-02-21T02:16:26;9.70;99.90
2327;DHT22;1174;51.588;7.328;2024-02-21T02:18:53;9.60;99.90
2327;DHT22;1174;51.588;7.328;2024-02-21T02:21:25;9.60;99.90
2327;DHT22;1174;51.588;7.328;2024-02-21T02:23:54;9.50;99.90
2327;DHT22;1174;51.588;7.328;2024-02-21T02:26:21;9.50;99.90
2327;DHT22;1174;51.588;7.328;2024-02-21T02:28:48;9.50;99.90
2327;DHT22;1174;51.588;7.328;2024-02-21T02:31:15;9.50;99.90
2327;DHT22;1174;51.588;7.328;2024-02-21T02:33:42;9.40;99.90
2327;DHT22;1174;51.588;7.328;2024-02-21T02:36:10;9.40;99.90
2327;DHT22;1174;51.588;7.328;2024-02-21T02:38:37;9.50;99.90
2327;DHT22;1174;51.588;7.328;2024-02-21T02:41:05;9.50;99.90
2327;DHT22;1174;51.588;7.328;2024-02-21T02:43:31;9.50;99.90
2327;DHT22;1174;51.588;7.328;2024-02-21T02:45:58;9.40;99.90
2327;DHT22;1174;51.588;7.328;2024-02-21T02:48:25;9.40;99.90
2327;DHT22;1174;51.588;7.328;2024-02-21T02:50:52;9.40;99.90
2327;DHT22;1174;51.588;7.328;2024-02-21T02:53:18;9.40;99.90
2327;DHT22;1174;51.588;7.328;2024-02-21T02:55:45;9.50;99.90
2327;DHT22;1174;51.588;7.328;2024-02-21T02:58:13;9.40;99.90
2327;DHT22;1174;51.588;7.328;2024-02-21T03:00:40;9.50;99.90
2327;DHT22;1174;51.588;7.328;2024-02-21T03:03:07;9.40;99.90
2327;DHT22;1174;51.588;7.328;2024-02-21T03:05:34;9.40;99.90
2327;DHT22;1174;51.588;7.328;2024-02-21T03:08:01;9.50;99.90
2327;DHT22;1174;51.588;7.328;2024-02-21T03:10:32;9.30;99.90
2327;DHT22;1174;51.588;7.328;2024-02-21T03:12:59;9.30;99.90
2327;DHT22;1174;51.588;7.328;2024-02-21T03:15:27;9.30;99.90
2327;DHT22;1174;51.588;7.328;2024-02-21T03:17:53;9.30;99.90
2327;DHT22;1174;51.588;7.328;2024-02-21T03:20:20;9.30;99.90
2327;DHT22;1174;51.588;7.328;2024-02-21T03:22:47;9.20;99.90
2327;DHT22;1174;51.588;7.328;2024-02-21T03:25:14;9.30;99.90
2327;DHT22;1174;51.588;7.328;2024-02-21T03:27:40;9.40;99.90
2327;DHT22;1174;51.588;7.328;2024-02-21T03:30:08;9.40;99.90
2327;DHT22;1174;51.588;7.328;2024-02-21T03:32:36;9.40;99.90
2327;DHT22;1174;51.588;7.328;2024-02-21T03:35:04;9.30;99.90
2327;DHT22;1174;51.588;7.328;2024-02-21T03:37:31;9.40;99.90
2327;DHT22;1174;51.588;7.328;2024-02-21T03:39:57;9.40;99.90
2327;DHT22;1174;51.588;7.328;2024-02-21T03:42:24;9.40;99.90
2327;DHT22;1174;51.588;7.328;2024-02-21T03:44:51;9.40;99.90
2327;DHT22;1174;51.588;7.328;2024-02-21T03:47:17;9.50;99.90
2327;DHT22;1174;51.588;7.328;2024-02-21T03:49:45;9.40;99.90
2327;DHT22;1174;51.588;7.328;2024-02-21T03:52:12;9.50;99.90
2327;DHT22;1174;51.588;7.328;2024-02-21T03:54:39;9.50;99.90
2327;DHT22;1174;51.588;7.328;2024-02-21T03:57:06;9.50;99.90
2327;DHT22;1174;51.588;7.328;2024-02-21T03:59:32;9.50;99.90
2327;DHT22;1174;51.588;7.328;2024-02-21T04:01:59;9.50;99.90
2327;DHT22;1174;51.588;7.328;2024-02-21T04:04:26;9.50;99.90
2327;DHT22;1174;51.588;7.328;2024-02-21T04:06:54;9.50;99.90
2327;DHT22;1174;51.588;7.328;2024-02-21T04:09:21;9.40;99.90
2327;DHT22;1174;51.588;7.328;2024-02-21T04:11:47;9.50;99.90
2327;DHT22;1174;51.588;7.328;2024-02-21T04:14:14;9.50;99.90
2327;DHT22;1174;51.588;7.328;2024-02-21T04:16:41;9.50;99.90
2327;DHT22;1174;51.588;7.328;2024-02-21T04:19:07;9.50;99.90
2327;DHT22;1174;51.588;7.328;2024-02-21T04:21:35;9.50;99.90
2327;DHT22;1174;51.588;7.328;2024-02-21T04:24:03;9.40;99.90
2327;DHT22;1174;51.588;7.328;2024-02-21T04:26:31;9.50;99.90
2327;DHT22;1174;51.588;7.328;2024-02-21T04:28:57;9.40;99.90
2327;DHT22;1174;51.588;7.328;2024-02-21T04:31:24;9.40;99.90
2327;DHT22;1174;51.588;7.328;2024-02-21T04:33:51;9.50;99.90
2327;DHT22;1174;51.588;7.328;2024-02-21T04:36:18;9.60;99.90
2327;DHT22;1174;51.588;7.328;2024-02-21T04:38:45;9.60;99.90
2327;DHT22;1174;51.588;7.328;2024-02-21T04:41:13;9.60;99.90
2327;DHT22;1174;51.588;7.328;2024-02-21T04:43:40;9.50;99.90
2327;DHT22;1174;51.588;7.328;2024-02-21T04:46:07;9.50;99.90
2327;DHT22;1174;51.588;7.328;2024-02-21T04:48:34;9.50;99.90
2327;DHT22;1174;51.588;7.328;2024-02-21T04:51:00;9.50;99.90
2327;DHT22;1174;51.588;7.328;2024-02-21T04:53:27;9.50;99.90
2327;DHT22;1174;51.588;7.328;2024-02-21T04:55:54;9.50;99.90
2327;DHT22;1174;51.588;7.328;2024-02-21T04:58:22;9.60;99.90
2327;DHT22;1174;51.588;7.328;2024-02-21T05:00:48;9.60;99.90
2327;DHT22;1174;51.588;7.328;2024-02-21T05:03:15;9.60;99.90
2327;DHT22;1174;51.588;7.328;2024-02-21T05:05:42;9.50;99.90
2327;DHT22;1174;51.588;7.328;2024-02-21T05:08:09;9.50;99.90
2327;DHT22;1174;51.588;7.328;2024-02-21T05:10:37;9.50;99.90
2327;DHT22;1174;51.588;7.328;2024-02-21T05:13:03;9.60;99.90
2327;DHT22;1174;51.588;7.328;2024-02-21T05:15:31;9.60;99.90
2327;DHT22;1174;51.588;7.328;2024-02-21T05:17:59;9.60;99.90
2327;DHT22;1174;51.588;7.328;2024-02-21T05:20:26;9.50;99.90
2327;DHT22;1174;51.588;7.328;2024-02-21T05:22:52;9.60;99.90
2327;DHT22;1174;51.588;7.328;2024-02-21T05:25:19;9.70;99.90
2327;DHT22;1174;51.588;7.328;2024-02-21T05:27:46;9.60;99.90
2327;DHT22;1174;51.588;7.328;2024-02-21T05:30:13;9.60;99.90
2327;DHT22;1174;51.588;7.328;2024-02-21T05:32:41;9.60;99.90
2327;DHT22;1174;51.588;7.328;2024-02-21T05:35:08;9.60;99.90
2327;DHT22;1174;51.588;7.328;2024-02-21T05:37:35;9.60;99.90
2327;DHT22;1174;51.588;7.328;2024-02-21T05:40:02;9.60;99.90
2327;DHT22;1174;51.588;7.328;2024-02-21T05:42:28;9.60;99.90
2327;DHT22;1174;51.588;7.328;2024-02-21T05:44:55;9.60;99.90
2327;DHT22;1174;51.588;7.328;2024-02-21T05:47:22;9.60;99.90
2327;DHT22;1174;51.588;7.328;2024-02-21T05:49:50;9.60;99.90
2327;DHT22;1174;51.588;7.328;2024-02-21T05:52:19;9.70;99.90
2327;DHT22;1174;51.588;7.328;2024-02-21T05:54:45;9.60;99.90
2327;DHT22;1174;51.588;7.328;2024-02-21T05:57:12;9.80;99.90
2327;DHT22;1174;51.588;7.328;2024-02-21T05:59:39;9.70;99.90
2327;DHT22;1174;51.588;7.328;2024-02-21T06:02:07;9.70;99.90
2327;DHT22;1174;51.588;7.328;2024-02-21T06:04:34;9.80;99.90
2327;DHT22;1174;51.588;7.328;2024-02-21T06:07:02;9.80;99.90
2327;DHT22;1174;51.588;7.328;2024-02-21T06:09:29;9.80;99.90
2327;DHT22;1174;51.588;7.328;2024-02-21T06:11:57;9.70;99.90
2327;DHT22;1174;51.588;7.328;2024-02-21T06:14:24;9.70;99.90
2327;DHT22;1174;51.588;7.328;2024-02-21T06:16:50;9.70;99.90
2327;DHT22;1174;51.588;7.328;2024-02-21T06:19:17;9.70;99.90
2327;DHT22;1174;51.588;7.328;2024-02-21T06:21:44;9.60;99.90
2327;DHT22;1174;51.588;7.328;2024-02-21T06:24:12;9.60;99.90
2327;DHT22;1174;51.588;7.328;2024-02-21T06:26:40;9.60;99.90
2327;DHT22;1174;51.588;7.328;2024-02-21T06:29:06;9.60;99.90
2327;DHT22;1174;51.588;7.328;2024-02-21T06:31:34;9.50;99.90
2327;DHT22;1174;51.588;7.328;2024-02-21T06:34:01;9.60;99.90
2327;DHT22;1174;51.588;7.328;2024-02-21T06:36:28;9.60;99.90
2327;DHT22;1174;51.588;7.328;2024-02-21T06:38:58;9.60;99.90
2327;DHT22;1174;51.588;7.328;2024-02-21T06:41:27;9.70;99.90
2327;DHT22;1174;51.588;7.328;2024-02-21T06:43:55;9.80;99.90
2327;DHT22;1174;51.588;7.328;2024-02-21T06:46:23;9.80;99.90
2327;DHT22;1174;51.588;7.328;2024-02-21T06:48:50;9.70;99.90
2327;DHT22;1174;51.588;7.328;2024-02-21T06:51:17;9.70;99.90
2327;DHT22;1174;51.588;7.328;2024-02-21T06:53:44;9.70;99.90
2327;DHT22;1174;51.588;7.328;2024-02-21T06:56:10;9.70;99.90
2327;DHT22;1174;51.588;7.328;2024-02-21T06:58:38;9.70;99.90
2327;DHT22;1174;51.588;7.328;2024-02-21T07:01:06;9.60;99.90
2327;DHT22;1174;51.588;7.328;2024-02-21T07:03:33;9.60;99.90
2327;DHT22;1174;51.588;7.328;2024-02-21T07:05:59;9.70;99.90
2327;DHT22;1174;51.588;7.328;2024-02-21T07:08:26;9.70;99.90
2327;DHT22;1174;51.588;7.328;2024-02-21T07:10:53;9.70;99.90
2327;DHT22;1174;51.588;7.328;2024-02-21T07:13:20;9.80;99.90
2327;DHT22;1174;51.588;7.328;2024-02-21T07:15:49;9.70;99.90
2327;DHT22;1174;51.588;7.328;2024-02-21T07:18:17;9.70;99.90
2327;DHT22;1174;51.588;7.328;2024-02-21T07:20:44;9.80;99.90
2327;DHT22;1174;51.588;7.328;2024-02-21T07:23:10;9.80;99.90
2327;DHT22;1174;51.588;7.328;2024-02-21T07:25:38;9.80;99.90
2327;DHT22;1174;51.588;7.328;2024-02-21T07:28:05;9.80;99.90
2327;DHT22;1174;51.588;7.328;2024-02-21T07:30:32;9.70;99.90
2327;DHT22;1174;51.588;7.328;2024-02-21T07:33:00;9.70;99.90
2327;DHT22;1174;51.588;7.328;2024-02-21T07:35:26;9.70;99.90
2327;DHT22;1174;51.588;7.328;2024-02-21T07:37:53;9.70;99.90
2327;DHT22;1174;51.588;7.328;2024-02-21T07:40:20;9.80;99.90
2327;DHT22;1174;51.588;7.328;2024-02-21T07:42:47;9.90;99.90
2327;DHT22;1174;51.588;7.328;2024-02-21T07:45:13;9.90;99.90
2327;DHT22;1174;51.588;7.328;2024-02-21T07:47:40;10.00;99.90
2327;DHT22;1174;51.588;7.328;2024-02-21T07:50:09;9.90;99.90
2327;DHT22;1174;51.588;7.328;2024-02-21T07:52:35;9.90;99.90
2327;DHT22;1174;51.588;7.328;2024-02-21T07:55:02;10.00;99.90
2327;DHT22;1174;51.588;7.328;2024-02-21T07:57:29;10.10;99.90
2327;DHT22;1174;51.588;7.328;2024-02-21T07:59:56;10.10;99.90
2327;DHT22;1174;51.588;7.328;2024-02-21T08:02:23;10.20;99.90
2327;DHT22;1174;51.588;7.328;2024-02-21T08:04:50;10.20;99.90
2327;DHT22;1174;51.588;7.328;2024-02-21T08:07:18;10.10;99.90
2327;DHT22;1174;51.588;7.328;2024-02-21T08:09:44;10.00;99.90
2327;DHT22;1174;51.588;7.328;2024-02-21T08:12:11;10.20;99.90
2327;DHT22;1174;51.588;7.328;2024-02-21T08:14:38;10.20;99.90
2327;DHT22;1174;51.588;7.328;2024-02-21T08:17:04;10.20;99.90
2327;DHT22;1174;51.588;7.328;2024-02-21T08:19:31;10.20;99.90
2327;DHT22;1174;51.588;7.328;2024-02-21T08:21:58;10.20;99.90
2327;DHT22;1174;51.588;7.328;2024-02-21T08:24:27;10.20;99.90
2327;DHT22;1174;51.588;7.328;2024-02-21T08:26:53;10.30;99.90
2327;DHT22;1174;51.588;7.328;2024-02-21T08:29:20;10.20;99.90
2327;DHT22;1174;51.588;7.328;2024-02-21T08:31:47;10.20;99.90
2327;DHT22;1174;51.588;7.328;2024-02-21T08:34:14;10.20;99.90
2327;DHT22;1174;51.588;7.328;2024-02-21T08:36:41;10.30;99.90
2327;DHT22;1174;51.588;7.328;2024-02-21T08:39:08;10.30;99.90
2327;DHT22;1174;51.588;7.328;2024-02-21T08:41:37;10.30;99.90
2327;DHT22;1174;51.588;7.328;2024-02-21T08:44:04;10.30;99.90
2327;DHT22;1174;51.588;7.328;2024-02-21T08:46:32;10.40;99.90
2327;DHT22;1174;51.588;7.328;2024-02-21T08:48:59;10.50;99.90
2327;DHT22;1174;51.588;7.328;2024-02-21T08:51:26;10.40;99.90
2327;DHT22;1174;51.588;7.328;2024-02-21T08:53:53;10.30;99.90
2327;DHT22;1174;51.588;7.328;2024-02-21T08:56:20;10.20;99.90
2327;DHT22;1174;51.588;7.328;2024-02-21T08:58:48;10.30;99.90
2327;DHT22;1174;51.588;7.328;2024-02-21T09:01:15;10.30;99.90
2327;DHT22;1174;51.588;7.328;2024-02-21T09:03:42;10.40;99.90
2327;DHT22;1174;51.588;7.328;2024-02-21T09:06:10;10.40;99.90
2327;DHT22;1174;51.588;7.328;2024-02-21T09:08:38;10.50;99.90
2327;DHT22;1174;51.588;7.328;2024-02-21T09:11:06;10.50;99.90
2327;DHT22;1174;51.588;7.328;2024-02-21T09:13:33;10.50;99.90
2327;DHT22;1174;51.588;7.328;2024-02-21T09:16:01;10.40;99.90
2327;DHT22;1174;51.588;7.328;2024-02-21T09:18:29;10.40;99.90
2327;DHT22;1174;51.588;7.328;2024-02-21T09:20:56;10.40;99.90
2327;DHT22;1174;51.588;7.328;2024-02-21T09:23:24;10.30;99.90
2327;DHT22;1174;51.588;7.328;2024-02-21T09:25:51;10.40;99.90
2327;DHT22;1174;51.588;7.328;2024-02-21T09:28:17;10.40;99.90
2327;DHT22;1174;51.588;7.328;2024-02-21T09:30:44;10.30;99.90
2327;DHT22;1174;51.588;7.328;2024-02-21T09:33:13;10.30;99.90
2327;DHT22;1174;51.588;7.328;2024-02-21T09:35:40;10.30;99.90
2327;DHT22;1174;51.588;7.328;2024-02-21T09:38:07;10.20;99.90
2327;DHT22;1174;51.588;7.328;2024-02-21T09:40:33;10.20;99.90
2327;DHT22;1174;51.588;7.328;2024-02-21T09:43:05;10.10;99.90
2327;DHT22;1174;51.588;7.328;2024-02-21T09:45:33;10.00;99.90
2327;DHT22;1174;51.588;7.328;2024-02-21T09:48:24;9.80;99.90
2327;DHT22;1174;51.588;7.328;2024-02-21T09:50:53;9.80;99.90
2327;DHT22;1174;51.588;7.328;2024-02-21T09:53:24;9.90;99.90
2327;DHT22;1174;51.588;7.328;2024-02-21T09:55:51;10.00;99.90
2327;DHT22;1174;51.588;7.328;2024-02-21T09:58:19;10.10;99.90
2327;DHT22;1174;51.588;7.328;2024-02-21T10:00:46;10.30;99.90
2327;DHT22;1174;51.588;7.328;2024-02-21T10:03:14;10.20;99.90
2327;DHT22;1174;51.588;7.328;2024-02-21T10:05:47;10.30;99.90
2327;DHT22;1174;51.588;7.328;2024-02-21T10:08:15;10.30;99.90
2327;DHT22;1174;51.588;7.328;2024-02-21T10:10:43;10.10;99.90
2327;DHT22;1174;51.588;7.328;2024-02-21T10:13:10;10.10;99.90
2327;DHT22;1174;51.588;7.328;2024-02-21T10:15:37;10.00;99.90
2327;DHT22;1174;51.588;7.328;2024-02-21T10:18:04;10.00;99.90
2327;DHT22;1174;51.588;7.328;2024-02-21T10:20:33;10.00;99.90
2327;DHT22;1174;51.588;7.328;2024-02-21T10:23:01;9.90;99.90
2327;DHT22;1174;51.588;7.328;2024-02-21T10:25:28;9.80;99.90
2327;DHT22;1174;51.588;7.328;2024-02-21T10:27:55;9.90;99.90
2327;DHT22;1174;51.588;7.328;2024-02-21T10:30:22;10.00;99.90
2327;DHT22;1174;51.588;7.328;2024-02-21T10:32:49;10.00;99.90
2327;DHT22;1174;51.588;7.328;2024-02-21T10:35:26;10.00;99.90
2327;DHT22;1174;51.588;7.328;2024-02-21T10:37:55;10.10;99.90
2327;DHT22;1174;51.588;7.328;2024-02-21T10:40:23;10.40;99.90
2327;DHT22;1174;51.588;7.328;2024-02-21T10:42:56;10.60;99.90
2327;DHT22;1174;51.588;7.328;2024-02-21T10:45:27;10.60;99.90
2327;DHT22;1174;51.588;7.328;2024-02-21T10:47:56;10.60;99.90
2327;DHT22;1174;51.588;7.328;2024-02-21T10:50:31;10.70;99.90
2327;DHT22;1174;51.588;7.328;2024-02-21T10:53:05;10.80;99.90
2327;DHT22;1174;51.588;7.328;2024-02-21T10:55:38;11.00;99.90
2327;DHT22;1174;51.588;7.328;2024-02-21T10:58:09;11.00;99.90
2327;DHT22;1174;51.588;7.328;2024-02-21T11:00:37;10.80;99.90
2327;DHT22;1174;51.588;7.328;2024-02-21T11:03:04;10.70;99.90
2327;DHT22;1174;51.588;7.328;2024-02-21T11:05:32;10.60;99.90
2327;DHT22;1174;51.588;7.328;2024-02-21T11:08:01;10.60;99.90
2327;DHT22;1174;51.588;7.328;2024-02-21T11:10:29;10.60;99.90
2327;DHT22;1174;51.588;7.328;2024-02-21T11:13:06;10.70;99.90
2327;DHT22;1174;51.588;7.328;2024-02-21T11:15:33;10.70;99.90
2327;DHT22;1174;51.588;7.328;2024-02-21T11:18:00;10.80;99.90
2327;DHT22;1174;51.588;7.328;2024-02-21T11:20:33;10.70;99.90
2327;DHT22;1174;51.588;7.328;2024-02-21T11:23:02;10.90;99.90
2327;DHT22;1174;51.588;7.328;2024-02-21T11:25:29;11.00;99.90
2327;DHT22;1174;51.588;7.328;2024-02-21T11:28:01;11.00;99.90
2327;DHT22;1174;51.588;7.328;2024-02-21T11:30:30;11.20;99.90
2327;DHT22;1174;51.588;7.328;2024-02-21T11:33:01;11.20;99.90
2327;DHT22;1174;51.588;7.328;2024-02-21T11:35:31;11.20;99.90
2327;DHT22;1174;51.588;7.328;2024-02-21T11:38:09;11.30;99.90
2327;DHT22;1174;51.588;7.328;2024-02-21T11:40:39;11.30;99.90
2327;DHT22;1174;51.588;7.328;2024-02-21T11:43:07;11.30;99.90
2327;DHT22;1174;51.588;7.328;2024-02-21T11:45:33;11.40;99.90
2327;DHT22;1174;51.588;7.328;2024-02-21T11:48:00;11.40;99.90
2327;DHT22;1174;51.588;7.328;2024-02-21T11:50:29;11.50;99.90
2327;DHT22;1174;51.588;7.328;2024-02-21T11:52:56;11.50;99.90
2327;DHT22;1174;51.588;7.328;2024-02-21T11:55:25;11.50;99.90
2327;DHT22;1174;51.588;7.328;2024-02-21T11:57:52;11.60;99.90
2327;DHT22;1174;51.588;7.328;2024-02-21T12:00:19;11.70;99.90
2327;DHT22;1174;51.588;7.328;2024-02-21T12:02:46;11.50;99.90
2327;DHT22;1174;51.588;7.328;2024-02-21T12:05:14;11.50;99.90
2327;DHT22;1174;51.588;7.328;2024-02-21T12:07:41;11.70;99.90
2327;DHT22;1174;51.588;7.328;2024-02-21T12:10:08;11.80;99.90
2327;DHT22;1174;51.588;7.328;2024-02-21T12:12:37;11.80;99.90
2327;DHT22;1174;51.588;7.328;2024-02-21T12:15:05;11.80;99.90
2327;DHT22;1174;51.588;7.328;2024-02-21T12:17:33;12.10;99.90
2327;DHT22;1174;51.588;7.328;2024-02-21T12:20:00;12.20;99.90
2327;DHT22;1174;51.588;7.328;2024-02-21T12:22:29;12.30;99.90
2327;DHT22;1174;51.588;7.328;2024-02-21T12:24:57;12.30;99.90
2327;DHT22;1174;51.588;7.328;2024-02-21T12:27:24;12.30;99.90
2327;DHT22;1174;51.588;7.328;2024-02-21T12:29:53;12.20;99.90
2327;DHT22;1174;51.588;7.328;2024-02-21T12:32:20;12.30;99.90
2327;DHT22;1174;51.588;7.328;2024-02-21T12:34:46;12.40;99.90
2327;DHT22;1174;51.588;7.328;2024-02-21T12:37:13;12.20;99.90
2327;DHT22;1174;51.588;7.328;2024-02-21T12:39:41;12.20;99.90
2327;DHT22;1174;51.588;7.328;2024-02-21T12:42:08;12.40;99.90
2327;DHT22;1174;51.588;7.328;2024-02-21T12:44:37;12.30;99.90
2327;DHT22;1174;51.588;7.328;2024-02-21T12:47:05;12.30;99.90
2327;DHT22;1174;51.588;7.328;2024-02-21T12:49:32;12.10;99.90
2327;DHT22;1174;51.588;7.328;2024-02-21T12:51:59;12.10;99.90
2327;DHT22;1174;51.588;7.328;2024-02-21T12:54:26;12.00;99.90
2327;DHT22;1174;51.588;7.328;2024-02-21T12:56:52;12.20;99.90
2327;DHT22;1174;51.588;7.328;2024-02-21T12:59:19;12.50;99.90
2327;DHT22;1174;51.588;7.328;2024-02-21T13:01:46;12.50;99.90
2327;DHT22;1174;51.588;7.328;2024-02-21T13:04:14;12.20;99.90
2327;DHT22;1174;51.588;7.328;2024-02-21T13:06:41;12.40;99.90
2327;DHT22;1174;51.588;7.328;2024-02-21T13:09:08;12.40;99.90
2327;DHT22;1174;51.588;7.328;2024-02-21T13:11:36;12.50;99.90
2327;DHT22;1174;51.588;7.328;2024-02-21T13:14:03;12.60;99.90
2327;DHT22;1174;51.588;7.328;2024-02-21T13:16:30;12.40;99.90
2327;DHT22;1174;51.588;7.328;2024-02-21T13:18:56;12.40;99.90
2327;DHT22;1174;51.588;7.328;2024-02-21T13:21:24;12.60;99.90
2327;DHT22;1174;51.588;7.328;2024-02-21T13:23:51;12.70;99.90
2327;DHT22;1174;51.588;7.328;2024-02-21T13:26:18;12.60;99.90
2327;DHT22;1174;51.588;7.328;2024-02-21T13:28:45;12.60;99.90
2327;DHT22;1174;51.588;7.328;2024-02-21T13:31:13;12.60;99.90
2327;DHT22;1174;51.588;7.328;2024-02-21T13:33:41;12.50;99.90
2327;DHT22;1174;51.588;7.328;2024-02-21T13:36:09;12.40;99.90
2327;DHT22;1174;51.588;7.328;2024-02-21T13:38:38;12.60;99.90
2327;DHT22;1174;51.588;7.328;2024-02-21T13:41:05;12.80;99.90
2327;DHT22;1174;51.588;7.328;2024-02-21T13:43:32;12.80;99.90
2327;DHT22;1174;51.588;7.328;2024-02-21T13:46:00;12.60;99.90
2327;DHT22;1174;51.588;7.328;2024-02-21T13:48:28;12.70;99.90
2327;DHT22;1174;51.588;7.328;2024-02-21T13:50:55;12.70;99.90
2327;DHT22;1174;51.588;7.328;2024-02-21T13:53:22;12.70;99.90
2327;DHT22;1174;51.588;7.328;2024-02-21T13:55:50;12.70;99.90
2327;DHT22;1174;51.588;7.328;2024-02-21T13:58:17;12.70;99.90
2327;DHT22;1174;51.588;7.328;2024-02-21T14:00:45;12.80;99.90
2327;DHT22;1174;51.588;7.328;2024-02-21T14:03:12;12.50;99.90
2327;DHT22;1174;51.588;7.328;2024-02-21T14:05:39;12.40;99.90
2327;DHT22;1174;51.588;7.328;2024-02-21T14:08:06;12.40;99.90
2327;DHT22;1174;51.588;7.328;2024-02-21T14:10:33;12.60;99.90
2327;DHT22;1174;51.588;7.328;2024-02-21T14:13:01;12.30;99.90
2327;DHT22;1174;51.588;7.328;2024-02-21T14:15:28;12.20;99.90
2327;DHT22;1174;51.588;7.328;2024-02-21T14:17:54;12.40;99.90
2327;DHT22;1174;51.588;7.328;2024-02-21T14:20:21;12.40;99.90
2327;DHT22;1174;51.588;7.328;2024-02-21T14:22:48;12.30;99.90
2327;DHT22;1174;51.588;7.328;2024-02-21T14:25:15;12.30;99.90
2327;DHT22;1174;51.588;7.328;2024-02-21T14:27:42;12.40;99.90
2327;DHT22;1174;51.588;7.328;2024-02-21T14:30:10;12.40;99.90
2327;DHT22;1174;51.588;7.328;2024-02-21T14:32:37;12.30;99.90
2327;DHT22;1174;51.588;7.328;2024-02-21T14:35:04;12.40;99.90
2327;DHT22;1174;51.588;7.328;2024-02-21T14:37:31;12.40;99.90
2327;DHT22;1174;51.588;7.328;2024-02-21T14:39:58;12.60;99.90
2327;DHT22;1174;51.588;7.328;2024-02-21T14:42:25;12.70;99.90
2327;DHT22;1174;51.588;7.328;2024-02-21T14:44:52;12.70;99.90
2327;DHT22;1174;51.588;7.328;2024-02-21T14:47:20;12.70;99.90
2327;DHT22;1174;51.588;7.328;2024-02-21T14:49:47;12.60;99.90
2327;DHT22;1174;51.588;7.328;2024-02-21T14:52:14;12.60;99.90
2327;DHT22;1174;51.588;7.328;2024-02-21T14:54:42;12.40;99.90
2327;DHT22;1174;51.588;7.328;2024-02-21T14:57:14;12.40;99.90
2327;DHT22;1174;51.588;7.328;2024-02-21T14:59:41;12.40;99.90
2327;DHT22;1174;51.588;7.328;2024-02-21T15:02:07;12.30;99.90
2327;DHT22;1174;51.588;7.328;2024-02-21T15:04:37;12.20;99.90
2327;DHT22;1174;51.588;7.328;2024-02-21T15:07:04;12.20;99.90
2327;DHT22;1174;51.588;7.328;2024-02-21T15:09:31;12.30;99.90
2327;DHT22;1174;51.588;7.328;2024-02-21T15:11:57;12.50;99.90
2327;DHT22;1174;51.588;7.328;2024-02-21T15:14:24;12.30;99.90
2327;DHT22;1174;51.588;7.328;2024-02-21T15:16:51;12.20;99.90
2327;DHT22;1174;51.588;7.328;2024-02-21T15:19:18;12.00;99.90
2327;DHT22;1174;51.588;7.328;2024-02-21T15:21:46;11.90;99.90
2327;DHT22;1174;51.588;7.328;2024-02-21T15:24:13;11.90;99.90
2327;DHT22;1174;51.588;7.328;2024-02-21T15:26:39;11.90;99.90
2327;DHT22;1174;51.588;7.328;2024-02-21T15:29:06;11.90;99.90
2327;DHT22;1174;51.588;7.328;2024-02-21T15:31:33;11.80;99.90
2327;DHT22;1174;51.588;7.328;2024-02-21T15:33:59;11.80;99.90
2327;DHT22;1174;51.588;7.328;2024-02-21T15:36:26;11.90;99.90
2327;DHT22;1174;51.588;7.328;2024-02-21T15:38:55;12.00;99.90
2327;DHT22;1174;51.588;7.328;2024-02-21T15:41:24;11.90;99.90
2327;DHT22;1174;51.588;7.328;2024-02-21T15:43:50;11.80;99.90
2327;DHT22;1174;51.588;7.328;2024-02-21T15:46:18;11.90;99.90
2327;DHT22;1174;51.588;7.328;2024-02-21T15:48:45;11.70;99.90
2327;DHT22;1174;51.588;7.328;2024-02-21T15:51:13;11.70;99.90
2327;DHT22;1174;51.588;7.328;2024-02-21T15:53:40;11.80;99.90
2327;DHT22;1174;51.588;7.328;2024-02-21T15:56:11;11.70;99.90
2327;DHT22;1174;51.588;7.328;2024-02-21T15:58:39;11.70;99.90
2327;DHT22;1174;51.588;7.328;2024-02-21T16:01:06;11.70;99.90
2327;DHT22;1174;51.588;7.328;2024-02-21T16:03:36;11.60;99.90
2327;DHT22;1174;51.588;7.328;2024-02-21T16:06:04;11.70;99.90
2327;DHT22;1174;51.588;7.328;2024-02-21T16:08:30;11.70;99.90
2327;DHT22;1174;51.588;7.328;2024-02-21T16:10:59;11.70;99.90